sensor_id;sensor_type;location;lat;lon;timestamp;temperature;humidity
4960;DHT22;2495;48.200;11.532;2022-11-15T00:04:24;8.90;82.70
4960;DHT22;2495;48.200;11.532;2022-11-15T00:09:26;8.90;82.30
4960;DHT22;2495;48.200;11.532;2022-11-15T00:14:28;8.90;82.30
4960;DHT22;2495;48.200;11.532;2022-11-15T00:19:29;8.90;81.60
4960;DHT22;2495;48.200;11.532;2022-11-15T00:24:31;9.00;82.00
4960;DHT22;2495;48.200;11.532;2022-11-15T00:29:33;9.00;81.40
4960;DHT22;2495;48.200;11.532;2022-11-15T00:34:34;8.90;81.70
4960;DHT22;2495;48.200;11.532;2022-11-15T00:39:36;8.80;81.50
4960;DHT22;2495;48.200;11.532;2022-11-15T00:44:37;8.70;81.90
4960;DHT22;2495;48.200;11.532;2022-11-15T00:49:39;8.70;82.00
4960;DHT22;2495;48.200;11.532;2022-11-15T00:54:40;8.60;82.10
4960;DHT22;2495;48.200;11.532;2022-11-15T00:59:42;8.60;82.40
4960;DHT22;2495;48.200;11.532;2022-11-15T01:04:43;8.50;82.60
4960;DHT22;2495;48.200;11.532;2022-11-15T01:09:45;8.50;82.30
4960;DHT22;2495;48.200;11.532;2022-11-15T01:14:47;8.50;82.30
4960;DHT22;2495;48.200;11.532;2022-11-15T01:19:48;8.60;82.20
4960;DHT22;2495;48.200;11.532;2022-11-15T01:24:50;8.50;81.90
4960;DHT22;2495;48.200;11.532;2022-11-15T01:29:51;8.80;82.80
4960;DHT22;2495;48.200;11.532;2022-11-15T01:34:53;8.80;82.00
4960;DHT22;2495;48.200;11.532;2022-11-15T01:39:54;8.70;81.20
4960;DHT22;2495;48.200;11.532;2022-11-15T01:44:56;8.50;81.80
4960;DHT22;2495;48.200;11.532;2022-11-15T01:50:05;8.50;81.00
4960;DHT22;2495;48.200;11.532;2022-11-15T01:55:08;8.40;81.90
4960;DHT22;2495;48.200;11.532;2022-11-15T02:00:07;8.30;81.30
4960;DHT22;2495;48.200;11.532;2022-11-15T02:05:10;8.20;81.90
4960;DHT22;2495;48.200;11.532;2022-11-15T02:10:13;8.10;81.10
4960;DHT22;2495;48.200;11.532;2022-11-15T02:15:13;8.20;83.00
4960;DHT22;2495;48.200;11.532;2022-11-15T02:20:43;8.30;81.50
4960;DHT22;2495;48.200;11.532;2022-11-15T02:25:56;8.20;81.90
4960;DHT22;2495;48.200;11.532;2022-11-15T02:31:18;8.00;81.70
4960;DHT22;2495;48.200;11.532;2022-11-15T02:36:23;7.80;81.90
4960;DHT22;2495;48.200;11.532;2022-11-15T02:41:45;7.80;81.80
4960;DHT22;2495;48.200;11.532;2022-11-15T02:46:54;7.60;81.90
4960;DHT22;2495;48.200;11.532;2022-11-15T02:52:16;7.60;82.00
4960;DHT22;2495;48.200;11.532;2022-11-15T02:57:17;7.50;82.20
4960;DHT22;2495;48.200;11.532;2022-11-15T03:08:16;7.40;82.40
4960;DHT22;2495;48.200;11.532;2022-11-15T03:24:57;7.40;82.80
4960;DHT22;2495;48.200;11.532;2022-11-15T03:30:00;7.40;83.00
4960;DHT22;2495;48.200;11.532;2022-11-15T03:35:02;7.40;82.90
4960;DHT22;2495;48.200;11.532;2022-11-15T03:40:02;7.40;82.60
4960;DHT22;2495;48.200;11.532;2022-11-15T03:45:17;7.50;82.70
4960;DHT22;2495;48.200;11.532;2022-11-15T03:50:21;7.40;82.50
4960;DHT22;2495;48.200;11.532;2022-11-15T03:55:22;7.30;81.90
4960;DHT22;2495;48.200;11.532;2022-11-15T04:00:24;7.20;81.90
4960;DHT22;2495;48.200;11.532;2022-11-15T04:05:25;7.00;81.90
4960;DHT22;2495;48.200;11.532;2022-11-15T04:10:26;7.00;82.20
4960;DHT22;2495;48.200;11.532;2022-11-15T04:15:28;6.90;82.00
4960;DHT22;2495;48.200;11.532;2022-11-15T04:20:30;6.90;82.10
4960;DHT22;2495;48.200;11.532;2022-11-15T04:25:52;6.90;82.20
4960;DHT22;2495;48.200;11.532;2022-11-15T04:30:53;6.90;82.70
4960;DHT22;2495;48.200;11.532;2022-11-15T04:35:55;6.90;82.40
4960;DHT22;2495;48.200;11.532;2022-11-15T04:41:15;6.90;82.10
4960;DHT22;2495;48.200;11.532;2022-11-15T04:46:16;7.00;83.10
4960;DHT22;2495;48.200;11.532;2022-11-15T04:51:18;7.10;81.50
4960;DHT22;2495;48.200;11.532;2022-11-15T04:56:28;6.90;82.30
4960;DHT22;2495;48.200;11.532;2022-11-15T05:01:29;6.80;82.20
4960;DHT22;2495;48.200;11.532;2022-11-15T05:06:31;6.70;81.30
4960;DHT22;2495;48.200;11.532;2022-11-15T05:11:32;6.60;81.50
4960;DHT22;2495;48.200;11.532;2022-11-15T05:16:33;6.50;81.90
4960;DHT22;2495;48.200;11.532;2022-11-15T05:21:35;6.50;81.80
4960;DHT22;2495;48.200;11.532;2022-11-15T05:26:36;6.50;81.90
4960;DHT22;2495;48.200;11.532;2022-11-15T05:31:39;6.50;81.80
4960;DHT22;2495;48.200;11.532;2022-11-15T05:36:42;6.40;81.60
4960;DHT22;2495;48.200;11.532;2022-11-15T05:41:49;6.50;82.60
4960;DHT22;2495;48.200;11.532;2022-11-15T05:46:49;6.50;82.20
4960;DHT22;2495;48.200;11.532;2022-11-15T05:51:50;6.50;81.40
4960;DHT22;2495;48.200;11.532;2022-11-15T05:56:52;6.60;81.80
4960;DHT22;2495;48.200;11.532;2022-11-15T06:01:54;6.50;81.00
4960;DHT22;2495;48.200;11.532;2022-11-15T06:07:01;6.40;81.00
4960;DHT22;2495;48.200;11.532;2022-11-15T06:12:03;6.30;82.00
4960;DHT22;2495;48.200;11.532;2022-11-15T06:17:04;6.10;82.10
4960;DHT22;2495;48.200;11.532;2022-11-15T06:22:06;6.10;82.00
4960;DHT22;2495;48.200;11.532;2022-11-15T06:27:07;6.10;81.40
4960;DHT22;2495;48.200;11.532;2022-11-15T06:32:09;6.00;81.40
4960;DHT22;2495;48.200;11.532;2022-11-15T06:37:11;6.00;82.40
4960;DHT22;2495;48.200;11.532;2022-11-15T06:42:12;6.00;82.20
4960;DHT22;2495;48.200;11.532;2022-11-15T09:52:53;18.60;46.90
4960;DHT22;2495;48.200;11.532;2022-11-15T10:11:45;19.10;46.80
4960;DHT22;2495;48.200;11.532;2022-11-15T10:41:12;21.10;41.70
4960;DHT22;2495;48.200;11.532;2022-11-15T10:46:21;20.50;42.70
4960;DHT22;2495;48.200;11.532;2022-11-15T10:51:27;21.00;42.80
4960;DHT22;2495;48.200;11.532;2022-11-15T10:56:29;20.70;43.00
4960;DHT22;2495;48.200;11.532;2022-11-15T11:01:30;20.90;42.20
4960;DHT22;2495;48.200;11.532;2022-11-15T11:11:52;20.10;42.80
4960;DHT22;2495;48.200;11.532;2022-11-15T11:16:55;19.70;43.40
4960;DHT22;2495;48.200;11.532;2022-11-15T11:22:26;19.90;43.00
4960;DHT22;2495;48.200;11.532;2022-11-15T11:27:40;20.40;43.50
4960;DHT22;2495;48.200;11.532;2022-11-15T11:33:08;20.50;42.30
4960;DHT22;2495;48.200;11.532;2022-11-15T11:38:34;21.40;40.70
4960;DHT22;2495;48.200;11.532;2022-11-15T11:43:41;21.00;41.10
4960;DHT22;2495;48.200;11.532;2022-11-15T11:49:03;20.80;41.50
4960;DHT22;2495;48.200;11.532;2022-11-15T12:49:51;25.60;37.40
4960;DHT22;2495;48.200;11.532;2022-11-15T12:55:32;25.70;36.70
4960;DHT22;2495;48.200;11.532;2022-11-15T13:27:43;20.90;43.30
4960;DHT22;2495;48.200;11.532;2022-11-15T13:33:41;19.80;45.30
4960;DHT22;2495;48.200;11.532;2022-11-15T18:08:40;12.70;72.20
4960;DHT22;2495;48.200;11.532;2022-11-15T18:13:57;12.60;72.30
4960;DHT22;2495;48.200;11.532;2022-11-15T18:18:57;12.50;72.30
4960;DHT22;2495;48.200;11.532;2022-11-15T18:24:00;12.50;73.10
4960;DHT22;2495;48.200;11.532;2022-11-15T18:29:03;12.40;73.00
4960;DHT22;2495;48.200;11.532;2022-11-15T18:34:07;12.30;73.10
4960;DHT22;2495;48.200;11.532;2022-11-15T22:32:14;11.20;78.10
4960;DHT22;2495;48.200;11.532;2022-11-15T22:37:54;11.10;78.40
4960;DHT22;2495;48.200;11.532;2022-11-15T23:05:06;11.40;78.10
4960;DHT22;2495;48.200;11.532;2022-11-15T23:10:11;11.20;77.80
4960;DHT22;2495;48.200;11.532;2022-11-15T23:15:40;11.10;78.20
4960;DHT22;2495;48.200;11.532;2022-11-15T23:21:11;11.00;78.20
4960;DHT22;2495;48.200;11.532;2022-11-15T23:26:18;10.80;78.00
4960;DHT22;2495;48.200;11.532;2022-11-15T23:31:29;10.70;78.20
4960;DHT22;2495;48.200;11.532;2022-11-15T23:36:47;10.70;78.70
4960;DHT22;2495;48.200;11.532;2022-11-15T23:41:51;10.60;78.60
4960;DHT22;2495;48.200;11.532;2022-11-15T23:46:53;10.40;79.50
4960;DHT22;2495;48.200;11.532;2022-11-15T23:51:54;10.30;79.60
4960;DHT22;2495;48.200;11.532;2022-11-15T23:56:56;10.20;80.20
